Time;durP1;ratioP1;P1;durP2;ratioP2;P2;SDS_P1;SDS_P2;PMS_P1;PMS_P2;Temp;Humidity;BMP_temperature;BMP_pressure;BME280_temperature;BME280_humidity;BME280_pressure;Samples;Min_cycle;Max_cycle;Signal;HPM_P1;HPM_P2
2020/12/24 00:02:00;;;;;;;0.20;0.00;;;;;;;18.01;61.44;99696.97;5021560;27;113587;-58
2020/12/24 00:04:26;;;;;;;0.20;0.00;;;;;;;17.99;61.44;99680.94;5021314;27;128403;-58
2020/12/24 00:06:52;;;;;;;0.20;0.00;;;;;;;18.01;61.54;99677.88;5020849;27;121333;-58
2020/12/24 00:09:18;;;;;;;1.63;0.10;;;;;;;17.99;61.61;99682.88;5016721;27;97735;-59
2020/12/24 00:11:44;;;;;;;0.20;0.00;;;;;;;17.97;61.75;99677.75;5021620;27;99193;-58
2020/12/24 00:14:10;;;;;;;0.17;0.00;;;;;;;17.95;61.50;99662.84;5020240;27;126139;-58
2020/12/24 00:16:36;;;;;;;0.25;0.00;;;;;;;17.94;61.42;99648.44;5022404;27;98123;-58
2020/12/24 00:19:03;;;;;;;0.40;0.00;;;;;;;17.89;61.66;99665.81;5017344;27;121544;-58
2020/12/24 00:21:33;;;;;;;0.40;0.08;;;;;;;17.91;61.26;99670.91;5001438;27;116712;-58
2020/12/24 00:23:59;;;;;;;0.10;0.00;;;;;;;17.88;61.45;99661.50;4984571;27;114000;-58
2020/12/24 00:26:25;;;;;;;0.57;0.00;;;;;;;17.87;61.47;99653.63;5000442;27;127598;-58
2020/12/24 00:28:51;;;;;;;0.10;0.00;;;;;;;17.86;61.55;99643.88;5000992;27;121696;-58
2020/12/24 00:31:17;;;;;;;0.43;0.00;;;;;;;17.85;61.53;99650.47;5000412;27;129491;-58
2020/12/24 00:33:43;;;;;;;0.10;0.00;;;;;;;17.84;61.43;99652.38;5001375;27;128668;-58
2020/12/24 00:36:09;;;;;;;0.38;0.10;;;;;;;17.80;61.61;99659.66;5000796;27;127885;-58
2020/12/24 00:38:35;;;;;;;0.77;0.10;;;;;;;17.79;61.58;99655.31;5000315;27;122932;-58
2020/12/24 00:41:01;;;;;;;0.20;0.00;;;;;;;17.80;61.87;99656.91;5000521;27;127658;-58
2020/12/24 00:43:28;;;;;;;0.20;0.00;;;;;;;17.77;61.54;99659.50;5001682;27;127973;-58
2020/12/24 00:45:54;;;;;;;0.20;0.05;;;;;;;17.75;61.74;99657.09;5001319;27;105253;-58
2020/12/24 00:48:20;;;;;;;0.20;0.00;;;;;;;17.76;61.42;99666.06;5001883;27;97851;-58
2020/12/24 00:50:46;;;;;;;0.20;0.00;;;;;;;17.75;61.48;99665.28;5002019;27;127876;-57
2020/12/24 00:53:12;;;;;;;0.25;0.00;;;;;;;17.72;61.44;99665.13;5000155;27;127986;-58
2020/12/24 00:55:38;;;;;;;0.20;0.00;;;;;;;17.73;61.61;99672.19;5000725;27;123936;-58
2020/12/24 00:58:04;;;;;;;0.70;0.10;;;;;;;17.70;61.11;99670.13;4986211;27;97865;-58
2020/12/24 01:00:30;;;;;;;0.20;0.00;;;;;;;17.73;61.51;99672.19;5015104;27;127980;-58
2020/12/24 01:02:56;;;;;;;0.20;0.00;;;;;;;17.70;61.47;99657.28;5020456;27;117072;-58
2020/12/24 01:05:22;;;;;;;0.10;0.00;;;;;;;17.70;61.44;99660.00;5003743;27;125919;-58
2020/12/24 01:07:48;;;;;;;0.08;0.00;;;;;;;17.69;61.34;99672.06;4996514;27;122431;-59
2020/12/24 01:10:15;;;;;;;0.10;0.00;;;;;;;17.67;61.41;99666.91;5024994;27;107359;-58
2020/12/24 01:12:41;;;;;;;0.15;0.00;;;;;;;17.68;61.43;99675.88;5023867;27;98991;-58
2020/12/24 01:15:08;;;;;;;0.65;0.00;;;;;;;17.67;61.36;99668.84;5024090;27;126405;-58
2020/12/24 01:17:34;;;;;;;0.30;0.00;;;;;;;17.70;61.30;99672.84;5006438;27;97761;-58
2020/12/24 01:20:00;;;;;;;0.20;0.00;;;;;;;17.69;61.23;99660.34;5025332;27;97812;-58
2020/12/24 01:22:26;;;;;;;0.30;0.00;;;;;;;17.69;61.20;99652.97;5024343;27;118092;-58
2020/12/24 01:24:53;;;;;;;0.40;0.00;;;;;;;17.67;61.59;99658.75;5023968;27;125524;-58
2020/12/24 01:27:19;;;;;;;0.20;0.00;;;;;;;17.66;61.49;99670.00;5024941;27;110105;-58
2020/12/24 01:29:45;;;;;;;0.25;0.10;;;;;;;17.66;61.36;99662.59;5022468;27;112650;-58
2020/12/24 01:32:11;;;;;;;0.20;0.00;;;;;;;17.69;61.23;99660.34;5023764;27;99708;-58
2020/12/24 01:34:37;;;;;;;0.40;0.00;;;;;;;17.65;60.83;99650.13;5013786;27;128481;-58
2020/12/24 01:37:03;;;;;;;0.10;0.00;;;;;;;17.63;61.21;99655.09;5024809;27;97964;-58
2020/12/24 01:39:30;;;;;;;0.22;0.00;;;;;;;17.62;61.31;99650.78;5004737;27;126335;-58
2020/12/24 01:41:56;;;;;;;0.10;0.00;;;;;;;17.66;61.03;99640.00;5022706;27;128525;-58
2020/12/24 01:44:22;;;;;;;0.80;0.00;;;;;;;17.65;61.10;99635.69;5006384;27;127612;-58
2020/12/24 01:46:49;;;;;;;0.30;0.00;;;;;;;17.62;61.08;99641.81;5003334;27;97887;-58
2020/12/24 01:49:17;;;;;;;0.22;0.00;;;;;;;17.61;61.01;99643.75;5004172;27;98083;-58
2020/12/24 01:51:55;;;;;;;0.10;0.00;;;;;;;17.63;60.97;99637.94;4984564;27;113868;-58
2020/12/24 01:54:24;;;;;;;0.43;0.03;;;;;;;17.59;61.20;99637.81;4986233;27;98436;-58
2020/12/24 01:56:50;;;;;;;0.55;0.00;;;;;;;17.58;61.07;99630.78;4987696;27;113002;-58
2020/12/24 01:59:17;;;;;;;0.43;0.10;;;;;;;17.58;61.05;99619.88;5021744;27;114196;-58
2020/12/24 02:01:51;;;;;;;0.45;0.00;;;;;;;17.56;61.10;99624.84;5023294;27;97923;-58
2020/12/24 02:04:17;;;;;;;0.20;0.00;;;;;;;17.55;61.01;99626.00;5023896;27;98456;-58
2020/12/24 02:06:47;;;;;;;0.38;0.00;;;;;;;17.55;61.14;99627.94;5023941;27;97641;-58
2020/12/24 02:09:13;;;;;;;1.23;0.10;;;;;;;17.52;61.04;99628.59;5022473;27;117018;-58
2020/12/24 02:11:39;;;;;;;0.20;0.00;;;;;;;17.54;60.92;99620.88;5022775;27;125695;-58
2020/12/24 02:14:05;;;;;;;0.30;0.00;;;;;;;17.53;60.97;99625.53;5024644;27;98324;-58
2020/12/24 02:16:34;;;;;;;0.63;0.03;;;;;;;17.51;60.91;99635.16;5024334;27;99845;-58
2020/12/24 02:19:02;;;;;;;0.17;0.00;;;;;;;17.52;60.93;99632.09;5024201;27;98769;-58
2020/12/24 02:21:28;;;;;;;0.60;0.00;;;;;;;17.51;61.00;99621.56;5005926;27;98899;-58
2020/12/24 02:23:54;;;;;;;0.52;0.00;;;;;;;17.52;60.39;99621.22;5022207;27;127320;-58
2020/12/24 02:26:20;;;;;;;0.30;0.00;;;;;;;17.52;60.93;99613.03;5023709;27;97821;-58
2020/12/24 02:28:46;;;;;;;0.30;0.05;;;;;;;17.52;60.87;99613.03;5023140;27;104702;-58
2020/12/24 02:31:12;;;;;;;0.17;0.00;;;;;;;17.50;60.82;99631.66;5023118;27;99123;-58
2020/12/24 02:33:38;;;;;;;0.20;0.00;;;;;;;17.49;61.21;99624.63;5022557;27;127275;-58
2020/12/24 02:36:04;;;;;;;0.30;0.00;;;;;;;17.48;60.78;99617.56;5023052;27;123030;-58
2020/12/24 02:38:32;;;;;;;0.20;0.00;;;;;;;17.48;60.71;99620.28;5023005;27;118698;-58
2020/12/24 02:40:58;;;;;;;0.20;0.00;;;;;;;17.47;60.11;99607.00;5023287;27;99310;-58
2020/12/24 02:43:24;;;;;;;0.30;0.00;;;;;;;17.48;60.58;99616.75;5022818;27;127658;-58
2020/12/24 02:45:50;;;;;;;0.93;0.00;;;;;;;17.48;60.66;99611.31;5023582;27;101301;-58
2020/12/24 02:48:16;;;;;;;0.52;0.00;;;;;;;17.48;60.41;99614.03;5023127;27;104187;-58
2020/12/24 02:50:42;;;;;;;0.40;0.10;;;;;;;17.49;60.65;99613.72;5003235;27;126632;-58
2020/12/24 02:53:08;;;;;;;0.85;0.00;;;;;;;17.49;60.44;99599.28;5003882;27;98205;-58
2020/12/24 02:55:34;;;;;;;0.20;0.00;;;;;;;17.47;60.47;99602.34;5023796;27;97694;-57
2020/12/24 02:58:01;;;;;;;0.30;0.00;;;;;;;17.48;60.11;99606.66;5022290;27;127788;-58
2020/12/24 03:00:27;;;;;;;0.65;0.10;;;;;;;17.46;60.44;99613.59;5023594;27;99000;-58
2020/12/24 03:02:53;;;;;;;0.40;0.00;;;;;;;17.47;60.29;99610.53;5022086;27;118366;-58
2020/12/24 03:05:19;;;;;;;0.20;0.00;;;;;;;17.45;60.43;99607.34;5021867;27;123230;-57
2020/12/24 03:07:51;;;;;;;0.20;0.00;;;;;;;17.42;60.25;99610.72;5022024;27;126151;-58
2020/12/24 03:10:18;;;;;;;0.15;0.00;;;;;;;17.44;60.22;99603.00;5022464;27;120493;-58
2020/12/24 03:12:44;;;;;;;0.40;0.05;;;;;;;17.46;60.33;99595.31;5022963;27;98037;-58
2020/12/24 03:15:14;;;;;;;0.20;0.00;;;;;;;17.42;60.24;99600.63;5022305;27;121634;-59
2020/12/24 03:17:40;;;;;;;0.43;0.00;;;;;;;17.45;59.90;99590.19;5023372;27;98337;-58
2020/12/24 03:20:07;;;;;;;0.20;0.03;;;;;;;17.47;60.11;99585.22;5020891;27;116929;-58
2020/12/24 03:22:34;;;;;;;0.38;0.00;;;;;;;17.47;60.22;99568.88;5021238;27;97831;-58
2020/12/24 03:25:01;;;;;;;0.20;0.00;;;;;;;17.47;59.91;99575.09;4987270;27;98081;-58
2020/12/24 03:27:27;;;;;;;0.30;0.08;;;;;;;17.48;60.19;99573.97;5022730;27;98849;-58
2020/12/24 03:29:54;;;;;;;0.68;0.00;;;;;;;17.48;60.10;99565.00;5022255;27;111891;-58
2020/12/24 03:32:20;;;;;;;0.55;0.10;;;;;;;17.49;60.06;99578.31;5022711;27;114393;-58
2020/12/24 03:34:46;;;;;;;0.30;0.00;;;;;;;17.51;59.68;99586.13;5022385;27;112958;-58
2020/12/24 03:37:13;;;;;;;0.10;0.00;;;;;;;17.50;60.18;99565.47;5021529;27;128529;-58
2020/12/24 03:39:39;;;;;;;0.30;0.10;;;;;;;17.50;60.11;99555.38;5020319;27;103546;-58
2020/12/24 03:42:05;;;;;;;0.50;0.00;;;;;;;17.52;60.22;99558.53;5021604;27;126245;-58
2020/12/24 03:44:31;;;;;;;0.35;0.10;;;;;;;17.54;59.95;99569.13;5022806;27;97686;-57
2020/12/24 03:46:57;;;;;;;0.20;0.05;;;;;;;17.51;60.11;99573.31;5021073;27;128257;-58
2020/12/24 03:49:23;;;;;;;0.35;0.10;;;;;;;17.54;60.00;99569.91;5021790;27;127151;-58
2020/12/24 03:51:49;;;;;;;0.20;0.00;;;;;;;17.56;59.88;99566.84;5021484;27;127256;-58
2020/12/24 03:54:15;;;;;;;0.52;0.10;;;;;;;17.54;59.81;99569.13;5021388;27;123831;-58
2020/12/24 03:56:41;;;;;;;0.50;0.00;;;;;;;17.55;60.12;99560.59;5021989;27;126737;-58
2020/12/24 03:59:07;;;;;;;0.47;0.08;;;;;;;17.54;60.00;99560.94;5021414;27;127806;-58
2020/12/24 04:01:33;;;;;;;0.50;0.10;;;;;;;17.55;59.82;99563.34;5000700;27;128012;-58
2020/12/24 04:03:59;;;;;;;0.20;0.00;;;;;;;17.54;59.79;99564.47;5001425;27;123388;-58
2020/12/24 04:06:25;;;;;;;0.50;0.10;;;;;;;17.56;59.74;99548.56;5000742;27;128112;-58
2020/12/24 04:08:51;;;;;;;0.70;0.10;;;;;;;17.55;59.60;99546.97;5000172;27;128938;-58
2020/12/24 04:11:19;;;;;;;0.25;0.00;;;;;;;17.56;59.67;99564.91;5001098;27;127520;-58
2020/12/24 04:13:45;;;;;;;0.30;0.00;;;;;;;17.57;59.65;99563.81;5001476;27;97806;-58
2020/12/24 04:16:11;;;;;;;0.32;0.10;;;;;;;17.57;59.72;99563.00;5001789;27;98616;-58
2020/12/24 04:18:38;;;;;;;0.30;0.00;;;;;;;17.56;59.62;99575.81;4982124;27;99559;-58
2020/12/24 04:21:04;;;;;;;0.35;0.10;;;;;;;17.58;59.43;99578.22;5000940;27;124845;-58
2020/12/24 04:23:30;;;;;;;0.40;0.00;;;;;;;17.58;59.46;99583.66;5000077;27;123526;-57
2020/12/24 04:25:56;;;;;;;0.30;0.03;;;;;;;17.57;59.66;99587.53;4982037;27;114349;-57
2020/12/24 04:28:22;;;;;;;0.38;0.10;;;;;;;17.58;58.93;99561.88;5000451;27;127276;-58
2020/12/24 04:30:48;;;;;;;0.40;0.10;;;;;;;17.58;59.08;99549.03;5000904;27;125320;-58
2020/12/24 04:33:15;;;;;;;0.30;0.10;;;;;;;17.56;59.26;99548.56;5007046;27;97618;-58
2020/12/24 04:35:41;;;;;;;0.40;0.10;;;;;;;17.53;59.29;99549.25;4985923;27;112692;-57
2020/12/24 04:38:07;;;;;;;0.68;0.10;;;;;;;17.52;59.25;99550.38;4968318;27;128083;-58
2020/12/24 04:40:34;;;;;;;1.00;0.00;;;;;;;17.53;59.30;99545.75;5006899;27;98450;-58
2020/12/24 04:43:00;;;;;;;0.50;0.10;;;;;;;17.55;59.48;99540.75;5004567;27;97762;-58
2020/12/24 04:45:26;;;;;;;0.45;0.10;;;;;;;17.55;59.26;99532.56;5002480;27;128068;-58
2020/12/24 04:47:57;;;;;;;0.40;0.10;;;;;;;17.53;59.11;99548.47;5004618;27;98933;-59
2020/12/24 04:50:26;;;;;;;0.40;0.00;;;;;;;17.52;58.96;99544.94;5005131;27;98443;-58
2020/12/24 04:52:52;;;;;;;0.95;0.10;;;;;;;17.52;58.62;99544.94;4986429;27;97845;-57
2020/12/24 04:55:18;;;;;;;0.40;0.10;;;;;;;17.51;58.98;99537.09;5003104;27;98352;-58
2020/12/24 04:57:44;;;;;;;0.45;0.10;;;;;;;17.52;59.00;99541.41;4985127;27;127260;-58
2020/12/24 05:00:10;;;;;;;0.45;0.10;;;;;;;17.52;58.74;99530.50;4968483;27;120543;-58
2020/12/24 05:02:36;;;;;;;1.05;0.10;;;;;;;17.51;58.88;99531.66;5005050;27;97714;-58
2020/12/24 05:05:05;;;;;;;0.77;0.10;;;;;;;17.50;58.72;99533.59;5007198;27;128298;-58
2020/12/24 05:07:31;;;;;;;0.40;0.00;;;;;;;17.49;58.87;99531.16;5010877;27;127324;-58
2020/12/24 05:09:57;;;;;;;0.65;0.10;;;;;;;17.51;58.70;99529.72;5003772;27;127480;-58
2020/12/24 05:12:30;;;;;;;0.63;0.10;;;;;;;17.51;58.44;99512.56;5023449;27;122733;-57
2020/12/24 05:14:57;;;;;;;0.30;0.10;;;;;;;17.51;58.46;99526.19;5024551;27;111951;-58
2020/12/24 05:17:23;;;;;;;1.00;0.10;;;;;;;17.51;58.38;99520.75;5025161;27;98894;-58
2020/12/24 05:20:05;;;;;;;0.38;0.10;;;;;;;17.48;58.43;99535.03;5024520;27;97649;-57
2020/12/24 05:22:31;;;;;;;0.55;0.10;;;;;;;17.50;58.10;99535.50;4987685;27;97990;-57
2020/12/24 05:25:18;;;;;;;0.40;0.10;;;;;;;17.48;58.29;99524.94;5003642;27;98558;-58
2020/12/24 05:27:44;;;;;;;0.60;0.10;;;;;;;17.49;57.96;99534.72;5004053;27;98654;-58
2020/12/24 05:30:10;;;;;;;0.22;0.05;;;;;;;17.52;57.77;99546.84;4985865;27;119922;-58
2020/12/24 05:32:36;;;;;;;0.40;0.10;;;;;;;17.52;57.88;99552.31;5012513;27;122049;-58
2020/12/24 05:35:10;;;;;;;0.85;0.10;;;;;;;17.51;57.76;99553.44;5023601;27;98989;-58
2020/12/24 05:37:36;;;;;;;0.20;0.10;;;;;;;17.52;57.85;99546.84;5009568;27;120781;-58
2020/12/24 05:40:26;;;;;;;0.60;0.10;;;;;;;17.49;57.79;99561.13;5003561;27;115635;-58
2020/12/24 05:42:57;;;;;;;1.15;0.10;;;;;;;17.53;57.77;99573.78;5003193;27;97746;-58
2020/12/24 05:45:28;;;;;;;0.47;0.10;;;;;;;17.48;57.62;99575.91;4985590;27;98086;-58
2020/12/24 05:48:10;;;;;;;1.48;0.10;;;;;;;17.41;57.46;99579.19;5003470;27;98819;-57
2020/12/24 05:50:36;;;;;;;0.57;0.10;;;;;;;17.37;57.09;99579.06;5003701;27;98021;-58
2020/12/24 05:53:13;;;;;;;1.25;0.10;;;;;;;17.32;57.11;99568.34;5014644;27;97823;-58
2020/12/24 05:55:41;;;;;;;0.40;0.10;;;;;;;17.32;57.21;99564.81;5024303;27;113195;-58
2020/12/24 05:58:08;;;;;;;0.77;0.10;;;;;;;17.32;57.26;99575.72;5023837;27;113508;-58
2020/12/24 06:00:41;;;;;;;0.63;0.10;;;;;;;17.26;57.42;99599.66;4987496;27;97906;-58
2020/12/24 06:03:20;;;;;;;1.13;0.10;;;;;;;17.23;56.89;99596.78;4989424;27;98076;-58
2020/12/24 06:05:55;;;;;;;0.73;0.10;;;;;;;17.19;56.91;99593.94;5023513;27;98714;-58
2020/12/24 06:08:32;;;;;;;1.25;0.03;;;;;;;17.21;56.77;99590.88;5023903;27;99155;-58
2020/12/24 06:11:02;;;;;;;1.42;0.05;;;;;;;17.16;56.57;99591.88;5022671;27;97900;-58
2020/12/24 06:13:42;;;;;;;0.52;0.10;;;;;;;17.11;56.47;99597.50;5023856;27;97865;-58
2020/12/24 06:16:15;;;;;;;1.58;0.10;;;;;;;17.08;56.45;99606.34;5023080;27;100045;-58
2020/12/24 06:18:45;;;;;;;0.80;0.10;;;;;;;17.09;56.20;99603.28;5023549;27;97692;-58
2020/12/24 06:21:13;;;;;;;0.70;0.10;;;;;;;17.12;56.02;99621.69;5022936;27;116252;-58
2020/12/24 06:23:42;;;;;;;1.40;0.03;;;;;;;17.14;55.76;99611.28;5023216;27;97809;-58
2020/12/24 06:26:08;;;;;;;1.23;0.10;;;;;;;17.17;55.39;99607.88;4983804;27;114465;-58
2020/12/24 06:28:34;;;;;;;0.88;0.10;;;;;;;17.18;55.68;99600.50;4968310;27;98493;-57
2020/12/24 06:31:00;;;;;;;0.80;0.10;;;;;;;17.19;55.45;99610.28;4968142;27;97912;-58
2020/12/24 06:33:30;;;;;;;1.33;0.20;;;;;;;17.16;55.32;99614.44;4983266;27;106256;-58
2020/12/24 06:35:56;;;;;;;0.80;0.20;;;;;;;17.18;55.13;99616.84;5021792;27;98967;-58
2020/12/24 06:38:46;;;;;;;0.90;0.20;;;;;;;17.15;55.32;99622.94;5001769;27;97940;-58
2020/12/24 06:41:39;;;;;;;1.25;0.17;;;;;;;17.12;55.25;99615.44;5002048;27;98263;-58
2020/12/24 06:44:07;;;;;;;1.30;0.13;;;;;;;17.12;55.29;99616.22;4986999;27;98044;-58
2020/12/24 06:46:58;;;;;;;2.15;0.17;;;;;;;17.09;55.22;99608.72;5006662;27;99065;-58
2020/12/24 06:49:31;;;;;;;1.05;0.20;;;;;;;17.10;55.32;99610.34;4982702;27;98683;-58
2020/12/24 06:51:57;;;;;;;0.70;0.10;;;;;;;17.09;55.38;99616.88;5006057;27;98585;-58
2020/12/24 06:54:27;;;;;;;1.27;0.20;;;;;;;17.13;55.38;99614.31;4998549;27;123013;-58
2020/12/24 06:57:22;;;;;;;0.80;0.10;;;;;;;17.06;55.65;99612.13;5000763;27;121038;-58
2020/12/24 07:00:09;;;;;;;0.47;0.10;;;;;;;17.07;55.53;99612.91;5003465;27;98895;-58
2020/12/24 07:02:35;;;;;;;0.80;0.10;;;;;;;17.06;55.49;99614.06;5019377;27;99108;-58
2020/12/24 07:05:01;;;;;;;0.88;0.10;;;;;;;17.07;55.45;99599.31;5001016;27;122048;-58
2020/12/24 07:07:44;;;;;;;0.77;0.10;;;;;;;17.01;55.28;99612.31;5002976;27;128633;-58
2020/12/24 07:10:42;;;;;;;0.80;0.10;;;;;;;17.02;55.25;99613.91;5000968;27;98230;-57
2020/12/24 07:13:09;;;;;;;0.73;0.10;;;;;;;16.97;55.41;99614.09;5000116;27;98683;-58
2020/12/24 07:15:43;;;;;;;0.80;0.10;;;;;;;16.93;55.46;99621.31;4998961;27;97999;-58
2020/12/24 07:18:13;;;;;;;0.95;0.15;;;;;;;16.95;55.23;99612.84;5000739;27;98406;-58
2020/12/24 07:20:40;;;;;;;0.90;0.20;;;;;;;16.94;55.17;99612.06;5000644;27;98616;-58
2020/12/24 07:23:08;;;;;;;0.68;0.10;;;;;;;16.91;55.16;99615.44;4999379;27;97925;-58
2020/12/24 07:25:35;;;;;;;1.42;0.10;;;;;;;16.90;55.13;99613.84;4998745;27;110887;-58
2020/12/24 07:28:01;;;;;;;0.93;0.10;;;;;;;16.90;55.13;99619.28;5004042;27;98284;-58
2020/12/24 07:30:27;;;;;;;0.95;0.20;;;;;;;16.87;55.37;99615.28;5007236;27;126922;-58
2020/12/24 07:32:54;;;;;;;1.48;0.10;;;;;;;16.86;55.01;99630.03;4982313;27;98805;-58
2020/12/24 07:35:20;;;;;;;0.98;0.20;;;;;;;16.86;54.87;99632.75;5018549;27;98019;-58
2020/12/24 07:37:48;;;;;;;0.98;0.10;;;;;;;16.85;54.65;99631.13;5005140;27;97969;-59
2020/12/24 07:40:15;;;;;;;1.10;0.10;;;;;;;16.88;54.90;99629.69;4999672;27;98352;-58
2020/12/24 07:42:41;;;;;;;0.73;0.10;;;;;;;16.85;54.84;99639.31;5001368;27;117219;-58
2020/12/24 07:45:07;;;;;;;1.17;0.20;;;;;;;16.84;55.01;99640.44;5009916;27;122626;-58
2020/12/24 07:47:33;;;;;;;1.55;0.20;;;;;;;16.84;54.94;99629.53;4999355;27;98845;-58
2020/12/24 07:49:59;;;;;;;1.25;0.10;;;;;;;16.84;54.89;99628.75;5013327;27;126964;-58
2020/12/24 07:52:25;;;;;;;1.65;0.10;;;;;;;16.81;55.03;99622.03;5019375;27;127490;-58
2020/12/24 07:54:51;;;;;;;1.73;0.10;;;;;;;16.82;55.02;99615.47;5000962;27;123824;-58
2020/12/24 07:57:24;;;;;;;1.85;0.10;;;;;;;16.81;55.27;99624.75;4979390;27;128706;-58
2020/12/24 07:59:59;;;;;;;2.22;0.15;;;;;;;16.82;55.21;99620.09;4999484;27;97919;-58
2020/12/24 08:02:25;;;;;;;1.00;0.10;;;;;;;16.84;55.25;99615.16;4994868;27;99769;-58
2020/12/24 08:04:55;;;;;;;1.10;0.10;;;;;;;16.78;55.42;99620.00;4999550;27;109997;-57
2020/12/24 08:07:21;;;;;;;1.00;0.20;;;;;;;16.81;55.60;99623.97;4999265;27;98882;-58
2020/12/24 08:09:48;;;;;;;1.42;0.20;;;;;;;16.81;55.34;99623.97;4999811;27;98454;-58
2020/12/24 08:12:21;;;;;;;1.85;0.10;;;;;;;16.80;55.41;99630.53;5004258;27;98751;-58
2020/12/24 08:14:47;;;;;;;1.75;0.20;;;;;;;16.80;55.55;99623.16;5019695;27;97785;-58
2020/12/24 08:17:30;;;;;;;1.33;0.10;;;;;;;17.06;54.53;99633.91;5018886;27;98656;-57
2020/12/24 08:20:09;;;;;;;1.17;0.10;;;;;;;17.00;54.90;99623.53;4984609;27;97839;-57
2020/12/24 08:22:56;;;;;;;1.05;0.20;;;;;;;16.96;54.98;99622.59;4964768;27;105928;-58
2020/12/24 08:25:22;;;;;;;1.02;0.20;;;;;;;16.97;55.03;99616.03;4987628;27;97984;-58
2020/12/24 08:27:48;;;;;;;2.17;0.20;;;;;;;16.95;54.92;99612.84;4966754;27;128087;-57
2020/12/24 08:30:15;;;;;;;0.98;0.10;;;;;;;17.55;53.54;99611.56;5000336;27;127968;-58
2020/12/24 08:32:41;;;;;;;1.40;0.30;;;;;;;18.14;52.16;99616.78;4992181;27;126047;-58
2020/12/24 08:35:14;;;;;;;1.20;0.20;;;;;;;18.63;51.42;99605.94;5000276;27;122258;-58
2020/12/24 08:37:40;;;;;;;1.35;0.20;;;;;;;19.03;50.68;99622.41;5013492;27;111523;-58
2020/12/24 08:40:25;;;;;;;1.45;0.30;;;;;;;19.43;50.33;99607.16;5006309;27;99276;-58
2020/12/24 08:43:01;;;;;;;1.10;0.20;;;;;;;19.67;50.11;99604.38;5007260;27;98332;-58
2020/12/24 08:45:27;;;;;;;1.27;0.20;;;;;;;20.02;49.39;99593.59;5007759;27;98164;-58
2020/12/24 08:47:53;;;;;;;1.35;0.20;;;;;;;20.37;49.32;99586.63;5012566;27;128735;-58
2020/12/24 08:50:32;;;;;;;2.30;0.30;;;;;;;20.67;49.28;99581.50;5011165;27;128224;-58
2020/12/24 08:52:59;;;;;;;1.08;0.25;;;;;;;20.93;49.34;99586.38;5008112;27;97933;-58
2020/12/24 08:55:29;;;;;;;2.22;0.22;;;;;;;20.87;50.14;99585.88;5006475;27;97883;-58
2020/12/24 08:57:55;;;;;;;1.60;0.20;;;;;;;20.40;51.45;99581.25;5003422;27;99086;-58
2020/12/24 09:00:22;;;;;;;2.05;0.30;;;;;;;20.69;50.47;99580.00;4990337;27;99062;-58
2020/12/24 09:02:49;;;;;;;1.45;0.20;;;;;;;20.97;50.54;99581.78;4981792;27;98298;-58
2020/12/24 09:05:24;;;;;;;1.83;0.20;;;;;;;21.26;50.80;99577.69;5008327;27;97905;-58
2020/12/24 09:07:51;;;;;;;0.75;0.20;;;;;;;21.23;51.37;99572.94;5007462;27;98423;-58
2020/12/24 09:10:24;;;;;;;1.52;0.30;;;;;;;21.43;51.03;99568.28;4988276;27;102247;-58
2020/12/24 09:12:57;;;;;;;1.33;0.20;;;;;;;21.65;50.96;99583.19;4980974;27;98002;-58
2020/12/24 09:15:26;;;;;;;0.75;0.15;;;;;;;21.89;50.77;99565.59;5000356;27;97984;-58
2020/12/24 09:17:57;;;;;;;1.85;0.20;;;;;;;21.47;52.13;99578.16;4982345;27;98619;-58
2020/12/24 09:20:33;;;;;;;1.73;0.20;;;;;;;20.90;52.76;99582.41;4980276;28;98340;-58
2020/12/24 09:23:01;;;;;;;1.15;0.10;;;;;;;20.46;53.69;99581.75;4978572;27;98459;-58
2020/12/24 09:25:35;;;;;;;1.73;0.30;;;;;;;20.20;54.30;99585.03;4994303;27;98262;-59
2020/12/24 09:28:02;;;;;;;0.80;0.10;;;;;;;20.51;53.01;99584.25;5011608;27;98881;-58
2020/12/24 09:30:28;;;;;;;2.25;0.28;;;;;;;20.45;53.23;99585.66;5007650;27;98203;-58
2020/12/24 09:32:56;;;;;;;1.55;0.20;;;;;;;20.10;54.34;99575.41;5010186;27;98353;-58
2020/12/24 09:35:23;;;;;;;1.40;0.20;;;;;;;19.78;54.91;99591.78;5011928;27;97978;-58
2020/12/24 09:37:50;;;;;;;1.25;0.20;;;;;;;19.58;55.54;99579.91;5010473;27;98412;-58
2020/12/24 09:40:16;;;;;;;1.00;0.20;;;;;;;19.80;54.85;99581.28;5010896;27;98687;-57
2020/12/24 09:42:42;;;;;;;1.00;0.20;;;;;;;20.03;54.95;99573.28;5017934;27;98075;-58
2020/12/24 09:45:08;;;;;;;2.20;0.20;;;;;;;20.26;54.82;99572.69;5010016;27;97975;-58
2020/12/24 09:47:34;;;;;;;1.67;0.20;;;;;;;20.18;55.12;99571.72;5008021;27;100521;-58
2020/12/24 09:50:00;;;;;;;1.83;0.30;;;;;;;20.23;54.46;99571.44;5011357;27;128043;-58
2020/12/24 09:52:26;;;;;;;1.70;0.30;;;;;;;20.15;54.83;99563.41;5011638;27;98743;-58
2020/12/24 09:54:52;;;;;;;1.45;0.25;;;;;;;19.99;55.43;99579.81;5010955;27;108738;-58
2020/12/24 09:57:19;;;;;;;1.27;0.25;;;;;;;19.77;55.68;99570.28;5007603;27;126895;-58
2020/12/24 09:59:45;;;;;;;2.50;0.40;;;;;;;19.74;55.85;99563.56;5009982;27;125204;-58
2020/12/24 10:02:11;;;;;;;1.48;0.30;;;;;;;19.74;55.94;99555.34;5009294;27;127744;-58
2020/12/24 10:04:37;;;;;;;2.28;0.40;;;;;;;19.72;55.81;99560.38;5010359;27;122385;-57
2020/12/24 10:07:03;;;;;;;1.63;0.30;;;;;;;19.58;55.98;99566.22;5006855;27;107611;-58
2020/12/24 10:09:29;;;;;;;1.75;0.40;;;;;;;19.40;56.08;99554.00;4992092;27;106745;-58
2020/12/24 10:11:55;;;;;;;2.80;0.50;;;;;;;19.25;56.56;99555.53;5005171;27;127330;-58
2020/12/24 10:14:21;;;;;;;2.78;0.40;;;;;;;19.13;56.09;99550.91;4992057;27;98081;-58
2020/12/24 10:16:47;;;;;;;1.42;0.40;;;;;;;19.17;55.73;99551.00;4974758;27;98497;-58
2020/12/24 10:19:13;;;;;;;2.20;0.30;;;;;;;19.31;55.47;99556.09;4981558;27;127524;-58
2020/12/24 10:21:40;;;;;;;2.03;0.30;;;;;;;19.42;55.03;99545.47;5019505;27;98715;-58
2020/12/24 10:24:06;;;;;;;2.22;0.40;;;;;;;19.45;55.13;99542.81;5021473;27;98106;-57
2020/12/24 10:26:33;;;;;;;3.10;0.30;;;;;;;19.46;54.97;99540.91;5019604;27;98359;-58
2020/12/24 10:28:59;;;;;;;1.85;0.35;;;;;;;19.36;55.23;99545.72;5020570;27;117148;-58
2020/12/24 10:31:25;;;;;;;2.28;0.25;;;;;;;19.30;55.41;99533.47;4984823;27;127036;-58
2020/12/24 10:33:51;;;;;;;2.08;0.30;;;;;;;19.21;55.55;99532.78;4985086;27;122297;-58
2020/12/24 10:36:24;;;;;;;2.10;0.40;;;;;;;19.09;55.93;99536.34;5020362;27;121154;-58
2020/12/24 10:38:51;;;;;;;3.78;0.40;;;;;;;19.11;55.92;99531.34;5021141;27;100592;-58
2020/12/24 10:41:17;;;;;;;2.08;0.35;;;;;;;18.99;55.87;99515.00;5020624;27;111327;-58
2020/12/24 10:43:44;;;;;;;1.58;0.40;;;;;;;18.95;56.03;99516.06;4985913;27;97981;-57
2020/12/24 10:46:21;;;;;;;2.33;0.30;;;;;;;18.85;56.04;99512.66;4985841;27;97905;-57
2020/12/24 10:48:48;;;;;;;2.15;0.35;;;;;;;18.93;55.77;99513.66;4985389;27;98988;-57
2020/12/24 10:51:17;;;;;;;3.75;0.40;;;;;;;19.01;55.53;99512.72;5000447;27;115387;-58
2020/12/24 10:53:43;;;;;;;2.75;0.40;;;;;;;19.04;55.10;99516.69;5000871;27;98042;-58
2020/12/24 10:56:13;;;;;;;2.88;0.55;;;;;;;18.92;55.46;99506.63;5000821;27;98722;-58
2020/12/24 10:58:42;;;;;;;1.40;0.30;;;;;;;18.86;55.40;99516.16;4999932;27;112148;-58
2020/12/24 11:01:15;;;;;;;2.78;0.40;;;;;;;18.86;55.62;99511.53;4999351;27;98032;-58
2020/12/24 11:03:41;;;;;;;2.33;0.40;;;;;;;19.00;55.06;99507.63;5000604;27;111072;-58
2020/12/24 11:06:08;;;;;;;1.85;0.30;;;;;;;19.10;54.56;99499.72;4997505;27;126703;-58
2020/12/24 11:08:34;;;;;;;2.03;0.40;;;;;;;19.13;54.54;99488.09;4991636;27;99374;-58
2020/12/24 11:11:02;;;;;;;2.13;0.30;;;;;;;19.17;54.51;99492.88;4999364;27;127501;-58
2020/12/24 11:13:28;;;;;;;1.98;0.38;;;;;;;19.11;54.48;99487.66;5000538;27;97762;-58
2020/12/24 11:15:54;;;;;;;2.70;0.40;;;;;;;19.08;55.00;99490.28;5000094;27;99237;-58
2020/12/24 11:18:20;;;;;;;2.60;0.30;;;;;;;19.10;54.65;99477.88;4999225;27;126373;-58
2020/12/24 11:20:46;;;;;;;2.47;0.40;;;;;;;19.15;54.56;99481.50;4999122;27;127937;-58
2020/12/24 11:23:12;;;;;;;1.17;0.20;;;;;;;19.23;54.42;99475.09;4999483;27;98004;-59
2020/12/24 11:25:38;;;;;;;1.67;0.20;;;;;;;19.17;54.46;99479.22;4964852;27;100019;-58
2020/12/24 11:28:04;;;;;;;1.77;0.30;;;;;;;19.21;54.37;99472.69;4974610;27;116112;-58
2020/12/24 11:30:30;;;;;;;1.67;0.30;;;;;;;19.19;54.53;99455.88;5019033;27;128080;-58
2020/12/24 11:32:56;;;;;;;1.67;0.30;;;;;;;19.22;54.74;99460.66;5021275;27;97783;-58
2020/12/24 11:35:23;;;;;;;2.30;0.30;;;;;;;19.22;54.69;99457.91;5018618;27;127848;-58